Terminal Aerodrome Forecast
Issued by NWS

Home | Current Version | Previous Version | Graphics & Text | Print | Product List | Glossary On
Versions: 1 2 3 4 5 6 7 8 9 10 11 12 13 14 15 16 17 18 19
000
FTUS43 KLSX 150217 AAA
TAFSUS
TAF AMD
KSUS 150217Z 1502/1524 15006KT P6SM OVC025
     FM150700 18005KT 6SM -SHRA VCTS OVC020CB
     FM151600 28011G17KT P6SM OVC015
     FM152100 31011G17KT P6SM SCT030=

USA.gov is the U.S. government's official web portal to all federal, state and local government web resources and services.